Terminal Aerodrome Forecast
Issued by NWS Wilmington, OH

Current Version | Previous Version | Graphics & Text | Print | Product List | Glossary On
Versions: 1 2 3 4 5 6 7 8 9 10 11 12 13 14 15 16 17 18 19 20 21 22 23 24
172
FTUS41 KILN 281919 AAB
TAFILN
TAF AMD
KILN 281919Z 2819/2918 14010KT 5SM -SHRA BR VCTS OVC060CB
      TEMPO 2819/2821 2SM TSRA BR BKN025CB
     FM282100 18008KT P6SM VCTS OVC050CB
      TEMPO 2822/2901 3SM TSRA BR BKN025CB
     FM290100 10004KT 6SM BR BKN035
     FM290400 VRB03KT 4SM BR BKN012
     FM290800 VRB03KT 1SM BR OVC004
      TEMPO 2908/2912 1/2SM FG
     FM291500 02005KT 4SM BR OVC012=

USA.gov is the U.S. government's official web portal to all federal, state and local government web resources and services.